Glendale Luke AFB, Arizona
Current Conditions -  °F | °C
As of 10:58 PM on Tuesday 27 Jan 2015 (Local Time) from KLUF Reporting Station
Clear Clear  
Wind Chill: 56°   Ceiling: Unl
Heat Index: 56°   Visibility: 10mi
Dew Point: 51°   Wind: 6mph
Humidity: 86%   Direction: 20°NNE
Pressure: 30.15"   Gusts: NA
Location:  33.5402°N, 112.349°W
Report Text: KLUF 280558Z AUTO 02005KT 10SM CLR 13/11 A3015 RMK AO2 SLP206 T01310108 10224 20131 53006 $
Loading
Personal Weather Stations






























Interactive Weather Map New forecast layout! Learn more

10-Day Weather Forecast

Advertisements
Track Severe Weather on mobile